createdAt,value
2018-09-28T00:01:38.932Z,74.62
2018-09-28T00:04:11.212Z,74.56
2018-09-28T00:06:43.556Z,74.07
2018-09-28T00:09:15.838Z,74.01
2018-09-28T00:11:48.093Z,73.69
2018-09-28T00:14:20.346Z,74.13
2018-09-28T00:16:52.598Z,73.85
2018-09-28T00:19:24.872Z,74.28
2018-09-28T00:21:57.123Z,73.80
2018-09-28T00:24:29.385Z,73.88
2018-09-28T00:27:01.642Z,73.93
2018-09-28T00:29:33.954Z,74.08
2018-09-28T00:32:06.425Z,74.52
2018-09-28T00:34:38.786Z,73.76
2018-09-28T00:37:11.160Z,74.25
2018-09-28T00:39:43.421Z,74.43
2018-09-28T00:42:15.761Z,74.00
2018-09-28T00:44:48.073Z,74.52
2018-09-28T00:47:20.329Z,74.13
2018-09-28T00:49:52.660Z,74.49
2018-09-28T00:52:24.905Z,75.42
2018-09-28T00:54:57.227Z,74.74
2018-09-28T00:57:29.614Z,74.59
2018-09-28T01:00:01.904Z,75.27
2018-09-28T01:02:34.154Z,75.52
2018-09-28T01:05:06.503Z,75.70
2018-09-28T01:07:38.839Z,76.12
2018-09-28T01:10:11.121Z,75.83
2018-09-28T01:12:43.363Z,76.12
2018-09-28T01:15:15.658Z,75.20
2018-09-28T01:17:47.893Z,75.02
2018-09-28T01:20:20.105Z,75.46
2018-09-28T01:22:52.452Z,75.33
2018-09-28T01:25:24.790Z,75.59
2018-09-28T01:27:57.068Z,75.27
2018-09-28T01:30:29.864Z,76.07
2018-09-28T01:33:02.107Z,75.81
2018-09-28T01:35:34.363Z,76.36
2018-09-28T01:38:06.851Z,77.16
2018-09-28T01:40:39.138Z,76.48
2018-09-28T01:43:11.405Z,75.84
2018-09-28T01:45:43.694Z,75.05
2018-09-28T01:48:16.037Z,76.02
2018-09-28T01:50:48.346Z,75.46
2018-09-28T01:53:20.625Z,75.60
2018-09-28T01:55:52.884Z,75.26
2018-09-28T01:58:25.128Z,75.36
2018-09-28T02:00:57.384Z,75.90
2018-09-28T02:03:29.613Z,75.09
2018-09-28T02:06:01.932Z,75.99
2018-09-28T02:08:34.288Z,75.67
2018-09-28T02:11:06.608Z,75.66
2018-09-28T02:13:38.873Z,75.87
2018-09-28T02:16:11.167Z,75.55
2018-09-28T02:18:43.446Z,75.29
2018-09-28T02:21:15.677Z,76.26
2018-09-28T02:23:47.938Z,75.95
2018-09-28T02:26:20.200Z,75.66
2018-09-28T02:28:52.626Z,75.31
2018-09-28T02:31:24.878Z,75.97
2018-09-28T02:33:57.188Z,74.89
2018-09-28T02:36:29.440Z,75.84
2018-09-28T02:39:01.789Z,76.76
2018-09-28T02:41:34.129Z,77.55
2018-09-28T02:44:06.456Z,77.14
2018-09-28T02:46:38.773Z,76.72
2018-09-28T02:49:11.059Z,76.49
2018-09-28T02:51:43.289Z,76.70
2018-09-28T02:54:15.617Z,77.32
2018-09-28T02:56:47.869Z,77.06
2018-09-28T02:59:20.112Z,77.32
2018-09-28T03:01:52.364Z,77.27
2018-09-28T03:04:24.632Z,76.95
2018-09-28T03:06:56.924Z,76.33
2018-09-28T03:09:29.201Z,76.87
2018-09-28T03:12:01.542Z,76.71
2018-09-28T03:14:33.798Z,76.33
2018-09-28T03:17:06.140Z,76.19
2018-09-28T03:19:38.472Z,76.37
2018-09-28T03:22:10.693Z,76.57
2018-09-28T03:24:42.952Z,76.18
2018-09-28T03:27:15.209Z,76.39
2018-09-28T03:29:47.460Z,76.84
2018-09-28T03:32:19.680Z,76.02
2018-09-28T03:34:52.025Z,76.80
2018-09-28T03:37:24.332Z,76.47
2018-09-28T03:39:56.660Z,76.21
2018-09-28T03:42:28.985Z,76.84
2018-09-28T03:45:01.688Z,76.82
2018-09-28T03:47:34.531Z,76.33
2018-09-28T03:50:06.960Z,76.45
2018-09-28T03:52:39.205Z,76.71
2018-09-28T03:55:11.976Z,76.54
2018-09-28T03:57:44.248Z,76.99
2018-09-28T04:00:16.525Z,76.92
2018-09-28T04:02:48.865Z,77.18
2018-09-28T04:05:21.103Z,77.29
2018-09-28T04:07:53.381Z,78.06
2018-09-28T04:10:25.652Z,77.65
2018-09-28T04:12:58.166Z,77.49
2018-09-28T04:15:30.571Z,77.56
2018-09-28T04:18:02.941Z,77.78
2018-09-28T04:20:35.237Z,77.50
2018-09-28T04:23:07.728Z,78.27
2018-09-28T04:25:40.048Z,78.29
2018-09-28T04:28:12.317Z,77.95
2018-09-28T04:30:44.610Z,77.34
2018-09-28T04:33:16.886Z,77.38
2018-09-28T04:35:49.165Z,77.05
2018-09-28T04:38:21.447Z,77.57
2018-09-28T04:40:53.713Z,77.58
2018-09-28T04:43:25.996Z,77.85
2018-09-28T04:45:58.260Z,77.61
2018-09-28T04:48:30.569Z,77.66
2018-09-28T04:51:02.848Z,77.04
2018-09-28T04:53:35.108Z,77.37
2018-09-28T04:56:07.396Z,76.63
2018-09-28T04:58:39.726Z,77.05
2018-09-28T05:01:12.023Z,77.08
2018-09-28T05:03:44.301Z,77.31
2018-09-28T05:06:16.545Z,77.69
2018-09-28T05:08:48.837Z,78.28
2018-09-28T05:11:21.105Z,77.36
2018-09-28T05:13:53.389Z,78.08
2018-09-28T05:16:25.617Z,77.49
2018-09-28T05:18:57.856Z,78.39
2018-09-28T05:21:30.076Z,77.70
2018-09-28T05:24:02.361Z,77.30
2018-09-28T05:26:34.612Z,78.07
2018-09-28T05:29:06.908Z,77.69
2018-09-28T05:31:39.276Z,78.49
2018-09-28T05:34:11.511Z,78.55
2018-09-28T05:36:43.755Z,78.25
2018-09-28T05:39:16.362Z,78.13
2018-09-28T05:41:48.704Z,78.44
2018-09-28T05:44:21.213Z,77.43
2018-09-28T05:46:53.449Z,77.08
2018-09-28T05:49:25.883Z,77.49
2018-09-28T05:51:58.157Z,77.19
2018-09-28T05:54:30.515Z,77.44
2018-09-28T05:57:02.774Z,78.34
2018-09-28T05:59:40.626Z,78.21
2018-09-28T06:03:18.220Z,78.01
2018-09-28T06:05:56.170Z,76.16
2018-09-28T06:08:28.463Z,76.55
2018-09-28T06:11:00.852Z,74.83
2018-09-28T06:13:33.137Z,74.24
2018-09-28T06:16:05.578Z,73.72
2018-09-28T06:18:37.938Z,72.22
2018-09-28T06:21:10.190Z,68.99
2018-09-28T06:23:42.465Z,67.69
2018-09-28T06:26:14.763Z,67.37
2018-09-28T06:28:47.046Z,64.75
2018-09-28T06:31:19.312Z,64.99
2018-09-28T06:33:51.592Z,63.91
2018-09-28T06:36:23.984Z,61.95
2018-09-28T06:38:56.236Z,61.02
2018-09-28T06:41:28.507Z,59.68
2018-09-28T06:44:00.789Z,58.05
2018-09-28T06:46:33.101Z,57.18
2018-09-28T06:49:05.377Z,57.99
2018-09-28T06:51:37.730Z,58.28
2018-09-28T06:54:10.054Z,58.83
2018-09-28T06:56:42.290Z,58.69
2018-09-28T06:59:14.584Z,58.44
2018-09-28T07:01:46.896Z,58.75
2018-09-28T07:04:19.177Z,58.99
2018-09-28T07:06:51.480Z,58.44
2018-09-28T07:09:23.799Z,58.35
2018-09-28T07:11:56.231Z,57.86
2018-09-28T07:14:28.433Z,57.31
2018-09-28T07:17:00.780Z,57.40
2018-09-28T07:19:33.069Z,57.78
2018-09-28T07:22:05.373Z,57.34
2018-09-28T07:24:37.656Z,56.37
2018-09-28T07:27:09.946Z,56.80
2018-09-28T07:29:42.213Z,55.50
2018-09-28T07:32:14.649Z,55.88
2018-09-28T07:34:46.912Z,55.23
2018-09-28T07:37:25.864Z,54.73
2018-09-28T07:39:58.129Z,53.96
2018-09-28T07:42:30.433Z,53.47
2018-09-28T07:45:02.814Z,53.31
2018-09-28T07:47:35.151Z,53.74
2018-09-28T07:50:07.412Z,53.41
2018-09-28T07:52:39.677Z,52.79
2018-09-28T07:55:12.005Z,52.20
2018-09-28T07:57:44.329Z,51.92
2018-09-28T08:00:16.595Z,51.65
2018-09-28T08:02:48.885Z,51.75
2018-09-28T08:05:21.225Z,51.80
2018-09-28T08:07:53.528Z,51.50
2018-09-28T08:10:25.841Z,50.74
2018-09-28T08:12:58.122Z,51.31
2018-09-28T08:15:30.385Z,51.13
2018-09-28T08:18:02.672Z,51.08
2018-09-28T08:20:34.972Z,49.85
2018-09-28T08:23:07.299Z,49.97
2018-09-28T08:25:39.646Z,49.34
2018-09-28T08:28:12.160Z,50.36
2018-09-28T08:30:44.440Z,49.64
2018-09-28T08:33:16.699Z,50.02
2018-09-28T08:35:48.998Z,49.57
2018-09-28T08:38:21.297Z,49.20
2018-09-28T08:40:53.614Z,49.00
2018-09-28T08:43:25.903Z,48.09
2018-09-28T08:45:58.218Z,48.06
2018-09-28T08:48:30.515Z,48.10
2018-09-28T08:51:02.768Z,46.96
2018-09-28T08:53:35.129Z,46.48
2018-09-28T08:56:07.915Z,47.08
2018-09-28T08:58:40.206Z,46.16
2018-09-28T09:01:12.518Z,46.21
2018-09-28T09:03:44.836Z,45.18
2018-09-28T09:06:17.202Z,44.35
2018-09-28T09:08:49.457Z,45.20
2018-09-28T09:11:21.737Z,44.88
2018-09-28T09:13:54.030Z,44.62
2018-09-28T09:16:26.320Z,43.84
2018-09-28T09:18:58.609Z,44.86
2018-09-28T09:21:30.885Z,44.30
2018-09-28T09:24:03.311Z,43.82
2018-09-28T09:26:35.542Z,43.77
2018-09-28T09:29:07.872Z,43.82
2018-09-28T09:31:40.180Z,43.71
2018-09-28T09:34:12.493Z,43.79
2018-09-28T09:36:44.777Z,44.66
2018-09-28T09:39:17.056Z,44.06
2018-09-28T09:41:49.319Z,44.39
2018-09-28T09:44:21.554Z,43.92
2018-09-28T09:46:53.860Z,44.32
2018-09-28T09:49:26.137Z,43.92
2018-09-28T09:51:58.408Z,43.88
2018-09-28T09:54:30.687Z,44.25
2018-09-28T09:57:02.975Z,43.58
2018-09-28T09:59:35.227Z,43.66
2018-09-28T10:02:13.272Z,43.42
2018-09-28T10:04:45.738Z,42.96
2018-09-28T10:07:18.021Z,43.94
2018-09-28T10:09:50.276Z,43.14
2018-09-28T10:12:22.795Z,42.99
2018-09-28T10:14:54.978Z,43.36
2018-09-28T10:17:27.527Z,43.13
2018-09-28T10:19:59.800Z,42.91
2018-09-28T10:22:32.256Z,42.18
2018-09-28T10:25:04.537Z,42.10
2018-09-28T10:27:37.163Z,41.56
2018-09-28T10:30:09.408Z,42.43
2018-09-28T10:32:41.671Z,42.04
2018-09-28T10:35:14.054Z,42.72
2018-09-28T10:37:46.312Z,41.46
2018-09-28T10:40:18.686Z,41.79
2018-09-28T10:42:50.929Z,42.22
2018-09-28T10:45:23.320Z,41.17
2018-09-28T10:47:55.577Z,40.44
2018-09-28T10:50:27.877Z,40.47
2018-09-28T10:53:00.218Z,39.55
2018-09-28T10:55:32.493Z,37.24
2018-09-28T10:58:04.885Z,37.60
2018-09-28T11:00:37.185Z,37.90
2018-09-28T11:03:09.550Z,37.80
2018-09-28T11:05:41.809Z,38.46
2018-09-28T11:08:14.124Z,37.30
2018-09-28T11:10:46.542Z,37.35
2018-09-28T11:13:18.806Z,38.23
2018-09-28T11:15:51.209Z,38.10
2018-09-28T11:18:23.485Z,38.44
2018-09-28T11:20:55.796Z,38.63
2018-09-28T11:23:28.118Z,38.61
2018-09-28T11:26:00.454Z,38.01
2018-09-28T11:28:32.753Z,38.75
2018-09-28T11:31:05.036Z,39.91
2018-09-28T11:33:37.391Z,38.99
2018-09-28T11:36:09.638Z,39.43
2018-09-28T11:38:41.891Z,39.63
2018-09-28T11:41:14.250Z,39.41
2018-09-28T11:43:46.562Z,38.83
2018-09-28T11:46:18.957Z,39.52
2018-09-28T11:48:51.432Z,39.46
2018-09-28T11:51:23.813Z,38.85
2018-09-28T11:53:56.055Z,38.81
2018-09-28T11:56:28.368Z,38.37
2018-09-28T11:59:00.677Z,37.96
2018-09-28T12:01:33.306Z,38.02
2018-09-28T12:04:05.947Z,37.50
2018-09-28T12:06:38.457Z,37.18
2018-09-28T12:09:12.237Z,37.76
2018-09-28T12:11:44.568Z,38.34
2018-09-28T12:14:16.954Z,36.78
2018-09-28T12:16:49.296Z,37.49
2018-09-28T12:19:21.637Z,37.70
2018-09-28T12:21:53.965Z,36.37
2018-09-28T12:24:26.337Z,35.88
2018-09-28T12:26:58.783Z,36.55
2018-09-28T12:29:31.157Z,37.52
2018-09-28T12:32:03.489Z,37.85
2018-09-28T12:34:35.856Z,36.57
2018-09-28T12:37:08.136Z,37.22
2018-09-28T12:39:40.599Z,38.43
2018-09-28T12:42:13.076Z,37.55
2018-09-28T12:44:45.477Z,38.31
2018-09-28T12:47:17.773Z,37.32
2018-09-28T12:49:50.109Z,35.35
2018-09-28T12:52:22.444Z,34.83
2018-09-28T12:54:54.718Z,35.79
2018-09-28T12:57:27.095Z,35.36
2018-09-28T12:59:59.433Z,34.88
2018-09-28T13:02:31.791Z,35.64
2018-09-28T13:05:04.258Z,36.40
2018-09-28T13:07:36.653Z,37.08
2018-09-28T13:10:09.022Z,37.28
2018-09-28T13:12:41.346Z,36.53
2018-09-28T13:15:13.836Z,37.17
2018-09-28T13:17:46.005Z,35.97
2018-09-28T13:20:18.326Z,35.62
2018-09-28T13:22:50.570Z,35.07
2018-09-28T13:25:22.927Z,34.93
2018-09-28T13:27:55.225Z,34.73
2018-09-28T13:30:27.606Z,34.28
2018-09-28T13:32:59.907Z,35.22
2018-09-28T13:35:32.249Z,34.63
2018-09-28T13:38:04.672Z,34.25
2018-09-28T13:40:37.004Z,35.25
2018-09-28T13:43:09.303Z,35.06
2018-09-28T13:45:41.559Z,34.91
2018-09-28T13:48:13.911Z,34.87
2018-09-28T13:50:46.285Z,34.72
2018-09-28T13:53:18.566Z,34.94
2018-09-28T13:55:50.874Z,36.19
2018-09-28T13:58:23.269Z,35.76
2018-09-28T14:00:55.586Z,36.22
2018-09-28T14:03:27.913Z,35.27
2018-09-28T14:06:00.254Z,34.46
2018-09-28T14:08:32.725Z,35.24
2018-09-28T14:11:05.080Z,34.15
2018-09-28T14:13:37.414Z,34.49
2018-09-28T14:16:09.777Z,34.31
2018-09-28T14:18:42.176Z,35.64
2018-09-28T14:21:14.518Z,35.46
2018-09-28T14:23:46.880Z,35.97
2018-09-28T14:26:19.277Z,35.83
2018-09-28T14:28:51.866Z,35.85
2018-09-28T14:31:24.154Z,36.51
2018-09-28T14:33:56.559Z,36.18
2018-09-28T14:36:28.904Z,36.12
2018-09-28T14:39:01.176Z,36.22
2018-09-28T14:41:33.540Z,36.13
2018-09-28T14:44:06.058Z,35.65
2018-09-28T14:46:38.411Z,36.07
2018-09-28T14:49:10.922Z,36.71
2018-09-28T14:51:43.155Z,36.14
2018-09-28T14:54:15.776Z,35.68
2018-09-28T14:56:48.160Z,36.44
2018-09-28T14:59:20.371Z,36.68
2018-09-28T15:01:52.783Z,35.66
2018-09-28T15:04:25.135Z,35.81
2018-09-28T15:06:57.504Z,35.36
2018-09-28T15:09:29.781Z,35.92
2018-09-28T15:12:02.091Z,35.28
2018-09-28T15:14:34.478Z,35.32
2018-09-28T15:17:06.846Z,35.78
2018-09-28T15:19:39.278Z,36.23
2018-09-28T15:22:11.570Z,35.82
2018-09-28T15:24:43.957Z,36.84
2018-09-28T15:27:16.226Z,37.18
2018-09-28T15:29:48.650Z,37.49
2018-09-28T15:32:20.873Z,37.74
2018-09-28T15:34:53.175Z,38.30
2018-09-28T15:37:25.565Z,37.86
2018-09-28T15:39:57.910Z,38.46
2018-09-28T15:42:30.200Z,38.32
2018-09-28T15:45:02.521Z,38.33
2018-09-28T15:47:34.923Z,38.69
2018-09-28T15:50:07.171Z,38.92
2018-09-28T15:52:39.496Z,39.32
2018-09-28T15:55:11.861Z,38.19
2018-09-28T15:57:44.209Z,38.74
2018-09-28T16:00:16.540Z,38.49
2018-09-28T16:02:48.843Z,38.70
2018-09-28T16:05:21.241Z,39.50
2018-09-28T16:07:53.632Z,39.59
2018-09-28T16:10:26.012Z,39.08
2018-09-28T16:12:58.370Z,39.28
2018-09-28T16:15:30.704Z,39.48
2018-09-28T16:18:03.053Z,39.46
2018-09-28T16:20:35.377Z,39.06
2018-09-28T16:23:07.685Z,39.84
2018-09-28T16:25:39.976Z,40.36
2018-09-28T16:28:12.301Z,39.94
2018-09-28T16:30:44.608Z,40.73
2018-09-28T16:33:16.958Z,40.27
2018-09-28T16:35:49.300Z,41.15
2018-09-28T16:38:21.859Z,40.48
2018-09-28T16:40:54.189Z,41.90
2018-09-28T16:43:26.593Z,42.84
2018-09-28T16:45:58.930Z,42.98
2018-09-28T16:48:31.433Z,44.78
2018-09-28T16:51:03.712Z,44.18
2018-09-28T16:53:36.062Z,44.21
2018-09-28T16:56:08.418Z,45.44
2018-09-28T16:58:40.734Z,45.82
2018-09-28T17:01:13.049Z,45.66
2018-09-28T17:03:45.352Z,45.65
2018-09-28T17:06:17.957Z,46.00
2018-09-28T17:08:50.264Z,47.00
2018-09-28T17:11:22.579Z,47.33
2018-09-28T17:13:54.930Z,47.70
2018-09-28T17:16:27.797Z,47.88
2018-09-28T17:19:00.140Z,48.52
2018-09-28T17:21:32.449Z,48.92
2018-09-28T17:24:04.745Z,49.02
2018-09-28T17:26:37.003Z,48.76
2018-09-28T17:29:09.362Z,49.17
2018-09-28T17:31:41.667Z,49.40
2018-09-28T17:34:14.011Z,49.65
2018-09-28T17:36:46.384Z,50.04
2018-09-28T17:39:18.814Z,49.96
2018-09-28T17:41:51.230Z,49.35
2018-09-28T17:44:23.562Z,48.86
2018-09-28T17:46:55.962Z,48.89
2018-09-28T17:49:28.296Z,47.59
2018-09-28T17:52:00.607Z,48.32
2018-09-28T17:54:32.905Z,48.27
2018-09-28T17:57:05.250Z,49.08
2018-09-28T17:59:38.433Z,48.61
2018-09-28T18:02:11.372Z,49.04
2018-09-28T18:04:43.778Z,50.09
2018-09-28T18:07:16.058Z,50.01
2018-09-28T18:09:48.357Z,50.20
2018-09-28T18:12:20.686Z,50.61
2018-09-28T18:14:53.077Z,50.65
2018-09-28T18:17:25.405Z,50.93
2018-09-28T18:19:57.957Z,52.13
2018-09-28T18:22:30.280Z,52.66
2018-09-28T18:25:02.614Z,52.87
2018-09-28T18:27:34.931Z,53.25
2018-09-28T18:30:07.337Z,54.37
2018-09-28T18:32:39.688Z,54.63
2018-09-28T18:35:12.079Z,54.71
2018-09-28T18:37:44.455Z,54.66
2018-09-28T18:40:16.788Z,55.99
2018-09-28T18:42:49.123Z,56.20
2018-09-28T18:45:21.551Z,56.59
2018-09-28T18:47:53.934Z,56.82
2018-09-28T18:50:26.248Z,56.49
2018-09-28T18:52:58.623Z,57.43
2018-09-28T18:55:30.976Z,57.12
2018-09-28T18:58:03.320Z,57.03
2018-09-28T19:00:35.657Z,57.95
2018-09-28T19:03:08.034Z,57.99
2018-09-28T19:05:40.337Z,58.36
2018-09-28T19:08:12.672Z,58.88
2018-09-28T19:10:45.028Z,58.90
2018-09-28T19:13:17.359Z,58.49
2018-09-28T19:15:49.742Z,59.36
2018-09-28T19:18:22.164Z,59.02
2018-09-28T19:20:54.504Z,59.48
2018-09-28T19:23:26.851Z,59.67
2018-09-28T19:25:59.223Z,60.48
2018-09-28T19:28:31.631Z,61.09
2018-09-28T19:31:04.119Z,60.60
2018-09-28T19:33:36.531Z,62.41
2018-09-28T19:36:08.938Z,62.28
2018-09-28T19:38:41.352Z,62.70
2018-09-28T19:41:13.691Z,63.83
2018-09-28T19:43:46.051Z,63.14
2018-09-28T19:46:18.406Z,63.58
2018-09-28T19:48:50.780Z,64.25
2018-09-28T19:51:23.146Z,63.53
2018-09-28T19:53:55.509Z,64.09
2018-09-28T19:56:27.866Z,64.17
2018-09-28T19:59:00.285Z,64.65
2018-09-28T20:01:32.635Z,65.43
2018-09-28T20:04:05.075Z,65.84
2018-09-28T20:06:37.431Z,65.44
2018-09-28T20:09:10.836Z,65.72
2018-09-28T20:11:43.194Z,66.26
2018-09-28T20:14:15.632Z,66.50
2018-09-28T20:16:47.948Z,65.99
2018-09-28T20:19:20.327Z,66.92
2018-09-28T20:21:52.717Z,66.74
2018-09-28T20:24:25.145Z,67.27
2018-09-28T20:26:57.508Z,67.76
2018-09-28T20:29:30.128Z,67.83
2018-09-28T20:32:02.607Z,67.45
2018-09-28T20:34:34.953Z,68.00
2018-09-28T20:37:07.301Z,68.27
2018-09-28T20:39:39.673Z,68.82
2018-09-28T20:42:12.029Z,68.87
2018-09-28T20:44:44.725Z,69.47
2018-09-28T20:47:17.089Z,70.35
2018-09-28T20:49:49.517Z,71.13
2018-09-28T20:52:21.896Z,73.74
2018-09-28T20:54:54.262Z,74.37
2018-09-28T20:57:26.590Z,75.11
2018-09-28T20:59:58.953Z,77.35
2018-09-28T21:02:31.386Z,78.01
2018-09-28T21:05:03.736Z,79.37
2018-09-28T21:07:36.160Z,81.14
2018-09-28T21:10:08.554Z,81.11
2018-09-28T21:12:40.950Z,81.21
2018-09-28T21:15:13.301Z,81.67
2018-09-28T21:17:45.730Z,81.76
2018-09-28T21:20:18.118Z,82.36
2018-09-28T21:22:50.537Z,81.76
2018-09-28T21:25:22.905Z,80.21
2018-09-28T21:27:55.244Z,82.52
2018-09-28T21:30:27.568Z,82.72
2018-09-28T21:32:59.897Z,83.05
2018-09-28T21:35:32.272Z,83.79
2018-09-28T21:38:04.487Z,81.95
2018-09-28T21:43:15.017Z,82.72
2018-09-28T21:45:47.333Z,81.36
2018-09-28T21:48:19.682Z,82.33
2018-09-28T21:50:51.997Z,82.47
2018-09-28T21:53:24.313Z,80.26
2018-09-28T21:55:56.671Z,80.04
2018-09-28T21:58:29.001Z,80.01
2018-09-28T22:01:01.323Z,79.82
2018-09-28T22:03:33.678Z,79.73
2018-09-28T22:06:05.978Z,77.71
2018-09-28T22:08:38.265Z,78.14
2018-09-28T22:11:10.605Z,78.46
2018-09-28T22:13:42.962Z,76.00
2018-09-28T22:16:15.263Z,75.69
2018-09-28T22:18:47.591Z,76.72
2018-09-28T22:21:19.919Z,73.30
2018-09-28T22:23:52.266Z,72.84
2018-09-28T22:26:24.543Z,72.92
2018-09-28T22:28:56.907Z,72.94
2018-09-28T22:31:29.235Z,72.47
2018-09-28T22:34:01.490Z,70.93
2018-09-28T22:36:33.755Z,69.61
2018-09-28T22:39:07.733Z,70.47
2018-09-28T22:41:40.083Z,68.27
2018-09-28T22:44:12.365Z,68.20
2018-09-28T22:46:44.660Z,67.47
2018-09-28T22:49:16.934Z,69.15
2018-09-28T22:51:49.206Z,70.01
2018-09-28T22:54:21.537Z,70.12
2018-09-28T22:56:53.840Z,67.98
2018-09-28T22:59:26.091Z,66.89
2018-09-28T23:01:58.392Z,66.73
2018-09-28T23:04:30.651Z,67.17
2018-09-28T23:07:03.018Z,64.23
2018-09-28T23:09:35.274Z,66.11
2018-09-28T23:12:07.587Z,65.02
2018-09-28T23:14:39.886Z,65.01
2018-09-28T23:17:12.161Z,65.61
2018-09-28T23:19:44.404Z,64.59
2018-09-28T23:22:16.757Z,62.45
2018-09-28T23:24:49.135Z,62.57
2018-09-28T23:27:21.388Z,62.91
2018-09-28T23:29:53.618Z,63.89
2018-09-28T23:32:26.069Z,61.41
2018-09-28T23:34:58.295Z,62.63
2018-09-28T23:37:30.549Z,62.18
2018-09-28T23:40:03.088Z,62.22
2018-09-28T23:42:35.553Z,60.82
2018-09-28T23:45:08.045Z,61.70
2018-09-28T23:47:40.413Z,61.24
2018-09-28T23:50:12.569Z,62.14
2018-09-28T23:52:44.855Z,61.47
2018-09-28T23:55:17.120Z,58.40
2018-09-28T23:57:49.494Z,60.44
